createdAt,value
2023-05-04T00:00:27.163Z,1018.80
2023-05-04T00:01:27.143Z,1018.82
2023-05-04T00:02:27.189Z,1018.84
2023-05-04T00:03:27.233Z,1018.76
2023-05-04T00:04:27.207Z,1018.77
2023-05-04T00:05:27.114Z,1018.75
2023-05-04T00:06:27.113Z,1018.75
2023-05-04T00:07:27.074Z,1018.77
2023-05-04T00:08:27.070Z,1018.75
2023-05-04T00:09:27.048Z,1018.76
2023-05-04T00:10:27.059Z,1018.78
2023-05-04T00:11:27.039Z,1018.78
2023-05-04T00:12:27.067Z,1018.79
2023-05-04T00:13:27.015Z,1018.70
2023-05-04T00:14:26.989Z,1018.75
2023-05-04T00:15:26.989Z,1018.72
2023-05-04T00:16:28.031Z,1018.70
2023-05-04T00:17:27.184Z,1018.72
2023-05-04T00:18:26.953Z,1018.72
2023-05-04T00:19:26.943Z,1018.71
2023-05-04T00:20:26.956Z,1018.66
2023-05-04T00:21:26.918Z,1018.71
2023-05-04T00:22:26.916Z,1018.72
2023-05-04T00:23:26.929Z,1018.70
2023-05-04T00:24:26.884Z,1018.72
2023-05-04T00:25:26.871Z,1018.72
2023-05-04T00:26:26.851Z,1018.75
2023-05-04T00:27:26.866Z,1018.66
2023-05-04T00:28:28.386Z,1018.67
2023-05-04T00:29:26.896Z,1018.67
2023-05-04T00:30:26.826Z,1018.64
2023-05-04T00:31:26.904Z,1018.69
2023-05-04T00:32:26.831Z,1018.69
2023-05-04T00:33:26.775Z,1018.64
2023-05-04T00:34:26.777Z,1018.61
2023-05-04T00:35:26.813Z,1018.63
2023-05-04T00:36:26.753Z,1018.56
2023-05-04T00:37:26.738Z,1018.58
2023-05-04T00:38:26.747Z,1018.55
2023-05-04T00:39:26.724Z,1018.52
2023-05-04T00:40:26.708Z,1018.53
2023-05-04T00:41:26.740Z,1018.50
2023-05-04T00:42:26.677Z,1018.51
2023-05-04T00:43:26.676Z,1018.54
2023-05-04T00:44:26.670Z,1018.51
2023-05-04T00:45:26.658Z,1018.52
2023-05-04T00:46:26.724Z,1018.49
2023-05-04T00:47:26.711Z,1018.48
2023-05-04T00:48:26.639Z,1018.49
2023-05-04T00:49:26.602Z,1018.48
2023-05-04T00:50:26.590Z,1018.45
2023-05-04T00:51:26.629Z,1018.43
2023-05-04T00:52:26.594Z,1018.46
2023-05-04T00:53:26.595Z,1018.40
2023-05-04T00:54:26.570Z,1018.42
2023-05-04T00:55:26.534Z,1018.44
2023-05-04T00:56:26.526Z,1018.37
2023-05-04T00:57:26.547Z,1018.37
2023-05-04T00:58:26.491Z,1018.41
2023-05-04T00:59:26.512Z,1018.38
2023-05-04T01:00:26.496Z,1018.34
2023-05-04T01:01:26.495Z,1018.31
2023-05-04T01:02:26.523Z,1018.32
2023-05-04T01:03:26.713Z,1018.30
2023-05-04T01:04:27.456Z,1018.33
2023-05-04T01:05:26.432Z,1018.27
2023-05-04T01:06:26.428Z,1018.26
2023-05-04T01:07:26.417Z,1018.26
2023-05-04T01:08:26.414Z,1018.27
2023-05-04T01:09:26.382Z,1018.27
2023-05-04T01:10:26.380Z,1018.25
2023-05-04T01:11:26.353Z,1018.21
2023-05-04T01:12:26.375Z,1018.19
2023-05-04T01:13:26.344Z,1018.19
2023-05-04T01:14:26.358Z,1018.20
2023-05-04T01:15:26.321Z,1018.20
2023-05-04T01:16:26.317Z,1018.16
2023-05-04T01:17:26.458Z,1018.18
2023-05-04T01:18:26.290Z,1018.20
2023-05-04T01:19:26.371Z,1018.13
2023-05-04T01:20:26.284Z,1018.11
2023-05-04T01:21:26.259Z,1018.17
2023-05-04T01:22:26.271Z,1018.15
2023-05-04T01:23:26.253Z,1018.16
2023-05-04T01:24:26.230Z,1018.13
2023-05-04T01:25:26.225Z,1018.10
2023-05-04T01:26:26.190Z,1018.16
2023-05-04T01:27:26.201Z,1018.11
2023-05-04T01:28:26.158Z,1018.18
2023-05-04T01:29:26.155Z,1018.13
2023-05-04T01:30:26.188Z,1018.10
2023-05-04T01:31:26.292Z,1018.08
2023-05-04T01:32:26.354Z,1018.14
2023-05-04T01:33:26.288Z,1018.08
2023-05-04T01:34:26.152Z,1018.16
2023-05-04T01:35:27.565Z,1018.09
2023-05-04T01:36:26.111Z,1018.15
2023-05-04T01:37:26.075Z,1018.13
2023-05-04T01:38:26.445Z,1018.14
2023-05-04T01:39:27.022Z,1018.15
2023-05-04T01:40:26.151Z,1018.11
2023-05-04T01:41:26.446Z,1018.14
2023-05-04T01:42:27.574Z,1018.12
2023-05-04T01:43:26.178Z,1018.16
2023-05-04T01:44:26.946Z,1018.13
2023-05-04T01:45:27.041Z,1018.12
2023-05-04T01:46:25.983Z,1018.12
2023-05-04T01:47:27.457Z,1018.18
2023-05-04T01:48:27.890Z,1018.15
2023-05-04T01:49:25.980Z,1018.23
2023-05-04T01:50:25.948Z,1018.22
2023-05-04T01:51:25.915Z,1018.21
2023-05-04T01:52:25.891Z,1018.17
2023-05-04T01:53:25.950Z,1018.18
2023-05-04T01:54:25.893Z,1018.19
2023-05-04T01:55:25.892Z,1018.19
2023-05-04T01:56:25.910Z,1018.16
2023-05-04T01:57:25.930Z,1018.17
2023-05-04T01:58:26.803Z,1018.20
2023-05-04T01:59:25.958Z,1018.13
2023-05-04T02:00:27.276Z,1018.16
2023-05-04T02:01:25.815Z,1018.16
2023-05-04T02:02:25.864Z,1018.14
2023-05-04T02:03:26.878Z,1018.16
2023-05-04T02:04:25.789Z,1018.15
2023-05-04T02:05:25.767Z,1018.11
2023-05-04T02:06:25.849Z,1018.12
2023-05-04T02:07:25.722Z,1018.17
2023-05-04T02:08:25.747Z,1018.16
2023-05-04T02:09:25.752Z,1018.15
2023-05-04T02:10:25.701Z,1018.12
2023-05-04T02:11:25.712Z,1018.18
2023-05-04T02:12:25.695Z,1018.20
2023-05-04T02:13:25.685Z,1018.17
2023-05-04T02:14:25.690Z,1018.12
2023-05-04T02:15:25.636Z,1018.14
2023-05-04T02:16:25.714Z,1018.19
2023-05-04T02:17:25.643Z,1018.15
2023-05-04T02:18:27.075Z,1018.12
2023-05-04T02:19:25.614Z,1018.09
2023-05-04T02:20:25.618Z,1018.12
2023-05-04T02:21:27.156Z,1018.10
2023-05-04T02:22:25.584Z,1018.08
2023-05-04T02:23:25.560Z,1018.10
2023-05-04T02:24:25.544Z,1018.07
2023-05-04T02:25:25.564Z,1018.10
2023-05-04T02:26:27.065Z,1018.12
2023-05-04T02:27:25.507Z,1018.13
2023-05-04T02:28:25.532Z,1018.12
2023-05-04T02:29:25.492Z,1018.02
2023-05-04T02:30:25.501Z,1018.11
2023-05-04T02:31:25.524Z,1018.09
2023-05-04T02:32:25.467Z,1018.10
2023-05-04T02:33:25.480Z,1018.09
2023-05-04T02:34:25.544Z,1018.05
2023-05-04T02:35:25.431Z,1018.10
2023-05-04T02:36:25.446Z,1018.10
2023-05-04T02:37:25.655Z,1018.06
2023-05-04T02:38:25.392Z,1018.01
2023-05-04T02:39:25.467Z,1018.08
2023-05-04T02:40:25.383Z,1018.08
2023-05-04T02:41:25.648Z,1018.03
2023-05-04T02:42:25.366Z,1018.01
2023-05-04T02:43:25.640Z,1018.04
2023-05-04T02:44:25.377Z,1018.09
2023-05-04T02:45:25.382Z,1018.03
2023-05-04T02:46:25.305Z,1017.98
2023-05-04T02:47:25.318Z,1017.99
2023-05-04T02:48:26.098Z,1017.94
2023-05-04T02:49:25.290Z,1018.00
2023-05-04T02:50:26.719Z,1017.97
2023-05-04T02:51:25.707Z,1017.95
2023-05-04T02:52:25.257Z,1017.89
2023-05-04T02:53:25.248Z,1017.93
2023-05-04T02:54:25.285Z,1017.89
2023-05-04T02:55:25.242Z,1017.88
2023-05-04T02:56:25.229Z,1017.84
2023-05-04T02:57:26.712Z,1017.85
2023-05-04T02:58:25.216Z,1017.86
2023-05-04T02:59:25.193Z,1017.85
2023-05-04T03:00:25.157Z,1017.83
2023-05-04T03:01:25.230Z,1017.87
2023-05-04T03:02:25.172Z,1017.88
2023-05-04T03:03:25.158Z,1017.85
2023-05-04T03:04:25.231Z,1017.88
2023-05-04T03:05:25.121Z,1017.84
2023-05-04T03:06:25.124Z,1017.84
2023-05-04T03:07:25.083Z,1017.89
2023-05-04T03:08:25.062Z,1017.86
2023-05-04T03:09:25.127Z,1017.86
2023-05-04T03:10:25.052Z,1017.85
2023-05-04T03:11:25.174Z,1017.87
2023-05-04T03:12:25.106Z,1017.85
2023-05-04T03:13:25.093Z,1017.84
2023-05-04T03:14:25.013Z,1017.82
2023-05-04T03:15:24.998Z,1017.85
2023-05-04T03:16:25.040Z,1017.85
2023-05-04T03:17:24.983Z,1017.82
2023-05-04T03:18:25.011Z,1017.81
2023-05-04T03:19:25.018Z,1017.82
2023-05-04T03:20:24.949Z,1017.87
2023-05-04T03:21:24.954Z,1017.84
2023-05-04T03:22:24.977Z,1017.79
2023-05-04T03:23:24.966Z,1017.79
2023-05-04T03:24:25.049Z,1017.81
2023-05-04T03:25:24.909Z,1017.75
2023-05-04T03:26:24.882Z,1017.76
2023-05-04T03:27:24.948Z,1017.75
2023-05-04T03:28:24.898Z,1017.77
2023-05-04T03:29:24.842Z,1017.80
2023-05-04T03:30:24.823Z,1017.78
2023-05-04T03:31:24.853Z,1017.79
2023-05-04T03:32:24.833Z,1017.78
2023-05-04T03:33:24.835Z,1017.79
2023-05-04T03:34:24.828Z,1017.85
2023-05-04T03:35:25.329Z,1017.81
2023-05-04T03:36:24.774Z,1017.77
2023-05-04T03:37:24.735Z,1017.75
2023-05-04T03:38:26.250Z,1017.77
2023-05-04T03:39:24.778Z,1017.77
2023-05-04T03:40:24.720Z,1017.76
2023-05-04T03:41:24.711Z,1017.80
2023-05-04T03:42:24.745Z,1017.74
2023-05-04T03:43:24.677Z,1017.74
2023-05-04T03:44:24.669Z,1017.77
2023-05-04T03:45:24.645Z,1017.72
2023-05-04T03:46:24.753Z,1017.72
2023-05-04T03:47:24.674Z,1017.77
2023-05-04T03:48:24.619Z,1017.71
2023-05-04T03:49:24.609Z,1017.72
2023-05-04T03:50:26.072Z,1017.67
2023-05-04T03:51:24.616Z,1017.73
2023-05-04T03:52:24.584Z,1017.66
2023-05-04T03:53:24.597Z,1017.65
2023-05-04T03:54:24.571Z,1017.65
2023-05-04T03:55:24.549Z,1017.69
2023-05-04T03:56:24.530Z,1017.65
2023-05-04T03:57:24.801Z,1017.62
2023-05-04T03:58:24.552Z,1017.67
2023-05-04T03:59:25.510Z,1017.69
2023-05-04T04:00:24.513Z,1017.74
2023-05-04T04:01:24.520Z,1017.71
2023-05-04T04:02:24.582Z,1017.78
2023-05-04T04:03:24.649Z,1017.79
2023-05-04T04:04:24.535Z,1017.72
2023-05-04T04:05:24.510Z,1017.70
2023-05-04T04:06:24.434Z,1017.73
2023-05-04T04:07:24.508Z,1017.75
2023-05-04T04:08:24.452Z,1017.78
2023-05-04T04:09:24.426Z,1017.70
2023-05-04T04:10:24.506Z,1017.74
2023-05-04T04:11:24.368Z,1017.77
2023-05-04T04:12:24.425Z,1017.76
2023-05-04T04:13:24.359Z,1017.78
2023-05-04T04:14:25.291Z,1017.76
2023-05-04T04:15:24.340Z,1017.76
2023-05-04T04:16:24.453Z,1017.71
2023-05-04T04:17:24.446Z,1017.70
2023-05-04T04:18:24.315Z,1017.73
2023-05-04T04:19:24.271Z,1017.77
2023-05-04T04:20:24.275Z,1017.73
2023-05-04T04:21:24.249Z,1017.72
2023-05-04T04:22:25.248Z,1017.71
2023-05-04T04:23:24.245Z,1017.71
2023-05-04T04:24:26.212Z,1017.67
2023-05-04T04:25:24.240Z,1017.71
2023-05-04T04:26:24.250Z,1017.73
2023-05-04T04:27:24.405Z,1017.74
2023-05-04T04:28:24.183Z,1017.74
2023-05-04T04:29:24.150Z,1017.68
2023-05-04T04:30:24.188Z,1017.73
2023-05-04T04:31:24.184Z,1017.69
2023-05-04T04:32:24.171Z,1017.75
2023-05-04T04:33:24.136Z,1017.71
2023-05-04T04:34:24.130Z,1017.68
2023-05-04T04:35:24.390Z,1017.74
2023-05-04T04:36:24.123Z,1017.75
2023-05-04T04:37:24.079Z,1017.76
2023-05-04T04:38:24.402Z,1017.74
2023-05-04T04:39:24.062Z,1017.77
2023-05-04T04:40:24.044Z,1017.74
2023-05-04T04:41:24.023Z,1017.65
2023-05-04T04:42:24.071Z,1017.69
2023-05-04T04:43:24.124Z,1017.70
2023-05-04T04:44:24.182Z,1017.67
2023-05-04T04:45:24.000Z,1017.67
2023-05-04T04:46:24.264Z,1017.67
2023-05-04T04:47:24.064Z,1017.76
2023-05-04T04:48:24.004Z,1017.67
2023-05-04T04:49:23.944Z,1017.66
2023-05-04T04:50:23.935Z,1017.63
2023-05-04T04:51:24.141Z,1017.66
2023-05-04T04:52:23.899Z,1017.65
2023-05-04T04:53:24.877Z,1017.67
2023-05-04T04:54:23.895Z,1017.61
2023-05-04T04:55:23.875Z,1017.64
2023-05-04T04:56:23.890Z,1017.67
2023-05-04T04:57:23.857Z,1017.65
2023-05-04T04:58:23.879Z,1017.63
2023-05-04T04:59:23.826Z,1017.61
2023-05-04T05:00:23.867Z,1017.62
2023-05-04T05:01:24.631Z,1017.61
2023-05-04T05:02:23.807Z,1017.65
2023-05-04T05:03:23.835Z,1017.62
2023-05-04T05:04:23.983Z,1017.57
2023-05-04T05:05:23.777Z,1017.62
2023-05-04T05:06:24.612Z,1017.57
2023-05-04T05:07:23.741Z,1017.56
2023-05-04T05:08:23.747Z,1017.59
2023-05-04T05:09:23.726Z,1017.59
2023-05-04T05:10:23.707Z,1017.57
2023-05-04T05:11:23.731Z,1017.59
2023-05-04T05:12:23.743Z,1017.63
2023-05-04T05:13:23.683Z,1017.62
2023-05-04T05:14:23.671Z,1017.54
2023-05-04T05:15:24.707Z,1017.58
2023-05-04T05:16:24.680Z,1017.57
2023-05-04T05:17:24.745Z,1017.49
2023-05-04T05:18:24.455Z,1017.53
2023-05-04T05:19:23.628Z,1017.51
2023-05-04T05:20:23.613Z,1017.48
2023-05-04T05:21:23.700Z,1017.49
2023-05-04T05:22:23.596Z,1017.48
2023-05-04T05:23:23.622Z,1017.52
2023-05-04T05:24:23.604Z,1017.56
2023-05-04T05:25:23.574Z,1017.49
2023-05-04T05:26:23.579Z,1017.52
2023-05-04T05:27:24.364Z,1017.57
2023-05-04T05:28:23.540Z,1017.53
2023-05-04T05:29:23.534Z,1017.60
2023-05-04T05:30:23.497Z,1017.52
2023-05-04T05:31:23.545Z,1017.51
2023-05-04T05:32:23.465Z,1017.46
2023-05-04T05:33:23.485Z,1017.50
2023-05-04T05:34:23.441Z,1017.44
2023-05-04T05:35:23.445Z,1017.48
2023-05-04T05:36:23.435Z,1017.42
2023-05-04T05:37:23.990Z,1017.47
2023-05-04T05:38:23.451Z,1017.43
2023-05-04T05:39:23.398Z,1017.44
2023-05-04T05:40:23.383Z,1017.39
2023-05-04T05:41:23.360Z,1017.40
2023-05-04T05:42:23.374Z,1017.36
2023-05-04T05:43:23.388Z,1017.39
2023-05-04T05:44:23.461Z,1017.36
2023-05-04T05:45:23.341Z,1017.43
2023-05-04T05:46:23.466Z,1017.40
2023-05-04T05:47:23.319Z,1017.38
2023-05-04T05:48:23.308Z,1017.42
2023-05-04T05:49:23.281Z,1017.37
2023-05-04T05:50:23.270Z,1017.40
2023-05-04T05:51:23.253Z,1017.37
2023-05-04T05:52:23.391Z,1017.38
2023-05-04T05:53:23.250Z,1017.35
2023-05-04T05:54:23.229Z,1017.41
2023-05-04T05:55:23.211Z,1017.38
2023-05-04T05:56:23.219Z,1017.31
2023-05-04T05:57:24.011Z,1017.37
2023-05-04T05:58:23.251Z,1017.40
2023-05-04T05:59:23.182Z,1017.37
2023-05-04T06:00:23.192Z,1017.37
2023-05-04T06:01:23.191Z,1017.37
2023-05-04T06:02:23.308Z,1017.35
2023-05-04T06:03:24.745Z,1017.36
2023-05-04T06:04:23.129Z,1017.35
2023-05-04T06:05:23.099Z,1017.34
2023-05-04T06:06:23.095Z,1017.36
2023-05-04T06:07:23.098Z,1017.34
2023-05-04T06:08:23.069Z,1017.35
2023-05-04T06:09:23.061Z,1017.36
2023-05-04T06:10:23.057Z,1017.33
2023-05-04T06:11:23.400Z,1017.27
2023-05-04T06:12:23.055Z,1017.23
2023-05-04T06:13:23.013Z,1017.27
2023-05-04T06:14:22.997Z,1017.25
2023-05-04T06:15:23.043Z,1017.29
2023-05-04T06:16:23.013Z,1017.31
2023-05-04T06:17:23.820Z,1017.32
2023-05-04T06:18:22.948Z,1017.26
2023-05-04T06:19:22.948Z,1017.26
2023-05-04T06:20:22.954Z,1017.30
2023-05-04T06:21:22.923Z,1017.26
2023-05-04T06:22:22.909Z,1017.24
2023-05-04T06:23:22.896Z,1017.29
2023-05-04T06:24:22.892Z,1017.27
2023-05-04T06:25:22.934Z,1017.25
2023-05-04T06:26:22.904Z,1017.27
2023-05-04T06:27:24.302Z,1017.25
2023-05-04T06:28:22.922Z,1017.27
2023-05-04T06:29:22.829Z,1017.33
2023-05-04T06:30:22.816Z,1017.32
2023-05-04T06:31:22.875Z,1017.26
2023-05-04T06:32:22.846Z,1017.29
2023-05-04T06:33:22.934Z,1017.36
2023-05-04T06:34:22.823Z,1017.29
2023-05-04T06:35:22.771Z,1017.25
2023-05-04T06:36:22.748Z,1017.22
2023-05-04T06:37:22.749Z,1017.17
2023-05-04T06:38:22.861Z,1017.18
2023-05-04T06:39:22.726Z,1017.17
2023-05-04T06:40:24.532Z,1017.20
2023-05-04T06:41:22.787Z,1017.20
2023-05-04T06:42:22.779Z,1017.22
2023-05-04T06:43:22.721Z,1017.23
2023-05-04T06:44:24.180Z,1017.24
2023-05-04T06:45:23.623Z,1017.22
2023-05-04T06:46:22.729Z,1017.19
2023-05-04T06:47:23.730Z,1017.22
2023-05-04T06:48:22.701Z,1017.22
2023-05-04T06:49:22.617Z,1017.22
2023-05-04T06:50:22.593Z,1017.26
2023-05-04T06:51:22.626Z,1017.26
2023-05-04T06:52:22.994Z,1017.20
2023-05-04T06:53:22.591Z,1017.19
2023-05-04T06:54:22.558Z,1017.19
2023-05-04T06:55:22.565Z,1017.18
2023-05-04T06:56:22.522Z,1017.16
2023-05-04T06:57:22.572Z,1017.12
2023-05-04T06:58:22.523Z,1017.13
2023-05-04T06:59:22.498Z,1017.16
2023-05-04T07:00:22.485Z,1017.15
2023-05-04T07:01:22.489Z,1017.14
2023-05-04T07:02:22.633Z,1017.18
2023-05-04T07:03:22.499Z,1017.18
2023-05-04T07:04:22.874Z,1017.15
2023-05-04T07:05:22.475Z,1017.11
2023-05-04T07:06:22.436Z,1017.08
2023-05-04T07:07:22.431Z,1017.06
2023-05-04T07:08:22.418Z,1017.04
2023-05-04T07:09:22.744Z,1017.07
2023-05-04T07:10:24.342Z,1017.08
2023-05-04T07:11:22.378Z,1017.07
2023-05-04T07:12:22.360Z,1017.05
2023-05-04T07:13:22.368Z,1017.03
2023-05-04T07:14:22.375Z,1017.04
2023-05-04T07:15:23.798Z,1017.06
2023-05-04T07:16:22.353Z,1017.03
2023-05-04T07:17:22.773Z,1017.01
2023-05-04T07:18:22.294Z,1016.99
2023-05-04T07:19:22.292Z,1016.96
2023-05-04T07:20:25.033Z,1016.93
2023-05-04T07:21:28.466Z,1016.96
2023-05-04T07:22:23.238Z,1016.94
2023-05-04T07:23:22.236Z,1016.95
2023-05-04T07:24:22.231Z,1016.91
2023-05-04T07:25:22.222Z,1016.86
2023-05-04T07:26:22.321Z,1016.88
2023-05-04T07:27:22.349Z,1016.89
2023-05-04T07:28:23.639Z,1016.87
2023-05-04T07:29:22.162Z,1016.89
2023-05-04T07:30:23.618Z,1016.87
2023-05-04T07:31:22.346Z,1016.87
2023-05-04T07:32:23.125Z,1016.90
2023-05-04T07:33:22.159Z,1016.82
2023-05-04T07:34:30.500Z,1016.88
2023-05-04T07:35:23.250Z,1016.85
2023-05-04T07:36:22.077Z,1016.91
2023-05-04T07:37:22.446Z,1016.80
2023-05-04T07:38:22.507Z,1016.84
2023-05-04T07:39:22.074Z,1016.82
2023-05-04T07:40:23.510Z,1016.82
2023-05-04T07:41:22.513Z,1016.81
2023-05-04T07:42:22.076Z,1016.86
2023-05-04T07:43:22.548Z,1016.85
2023-05-04T07:44:23.461Z,1016.79
2023-05-04T07:45:21.992Z,1016.79
2023-05-04T07:46:24.062Z,1016.77
2023-05-04T07:47:23.452Z,1016.75
2023-05-04T07:48:23.441Z,1016.76
2023-05-04T07:49:21.957Z,1016.73
2023-05-04T07:50:21.936Z,1016.77
2023-05-04T07:51:23.472Z,1016.73
2023-05-04T07:52:21.952Z,1016.72
2023-05-04T07:53:23.366Z,1016.69
2023-05-04T07:54:23.444Z,1016.68
2023-05-04T07:55:22.063Z,1016.70
2023-05-04T07:56:21.895Z,1016.72
2023-05-04T07:57:22.671Z,1016.69
2023-05-04T07:58:21.965Z,1016.67
2023-05-04T07:59:21.869Z,1016.67
2023-05-04T08:00:22.663Z,1016.70
2023-05-04T08:01:21.821Z,1016.69
2023-05-04T08:02:21.875Z,1016.67
2023-05-04T08:03:23.409Z,1016.65
2023-05-04T08:04:22.746Z,1016.65
2023-05-04T08:05:21.839Z,1016.64
2023-05-04T08:06:21.790Z,1016.66
2023-05-04T08:07:22.567Z,1016.58
2023-05-04T08:08:21.907Z,1016.60
2023-05-04T08:09:22.055Z,1016.55
2023-05-04T08:10:21.759Z,1016.57
2023-05-04T08:11:21.924Z,1016.60
2023-05-04T08:12:21.701Z,1016.57
2023-05-04T08:13:22.659Z,1016.58
2023-05-04T08:14:21.673Z,1016.57
2023-05-04T08:15:21.686Z,1016.50
2023-05-04T08:16:23.618Z,1016.56
2023-05-04T08:17:21.714Z,1016.54
2023-05-04T08:18:21.644Z,1016.53
2023-05-04T08:19:21.611Z,1016.43
2023-05-04T08:20:23.521Z,1016.39
2023-05-04T08:21:21.836Z,1016.39
2023-05-04T08:22:21.580Z,1016.39
2023-05-04T08:23:21.760Z,1016.37
2023-05-04T08:24:21.557Z,1016.35
2023-05-04T08:25:22.022Z,1016.38
2023-05-04T08:26:21.547Z,1016.39
2023-05-04T08:27:22.543Z,1016.37
2023-05-04T08:28:21.691Z,1016.38
2023-05-04T08:29:21.527Z,1016.36
2023-05-04T08:30:21.499Z,1016.32
2023-05-04T08:31:21.575Z,1016.35
2023-05-04T08:32:21.472Z,1016.34
2023-05-04T08:33:22.415Z,1016.27
2023-05-04T08:34:21.615Z,1016.30
2023-05-04T08:35:21.436Z,1016.30
2023-05-04T08:36:21.458Z,1016.27
2023-05-04T08:37:21.419Z,1016.21
2023-05-04T08:38:21.476Z,1016.24
2023-05-04T08:39:21.451Z,1016.24
2023-05-04T08:40:21.387Z,1016.25
2023-05-04T08:41:21.382Z,1016.22
2023-05-04T08:42:21.411Z,1016.22
2023-05-04T08:43:21.348Z,1016.20
2023-05-04T08:44:21.324Z,1016.20
2023-05-04T08:45:22.163Z,1016.18
2023-05-04T08:46:21.400Z,1016.19
2023-05-04T08:47:21.314Z,1016.21
2023-05-04T08:48:21.331Z,1016.25
2023-05-04T08:49:21.291Z,1016.23
2023-05-04T08:50:22.766Z,1016.21
2023-05-04T08:51:21.281Z,1016.22
2023-05-04T08:52:22.705Z,1016.22
2023-05-04T08:53:22.200Z,1016.14
2023-05-04T08:54:21.241Z,1016.18
2023-05-04T08:55:21.857Z,1016.11
2023-05-04T08:56:21.220Z,1016.14
2023-05-04T08:57:21.229Z,1016.04
2023-05-04T08:58:21.169Z,1016.13
2023-05-04T08:59:21.216Z,1016.16
2023-05-04T09:00:21.260Z,1016.11
2023-05-04T09:01:21.208Z,1016.11
2023-05-04T09:02:21.214Z,1016.10
2023-05-04T09:03:22.691Z,1016.06
2023-05-04T09:04:21.462Z,1016.07
2023-05-04T09:05:21.162Z,1016.06
2023-05-04T09:06:21.498Z,1016.10
2023-05-04T09:07:21.476Z,1016.11
2023-05-04T09:08:21.427Z,1016.12
2023-05-04T09:09:21.057Z,1016.10
2023-05-04T09:10:21.140Z,1016.06
2023-05-04T09:11:21.060Z,1016.03
2023-05-04T09:12:21.012Z,1016.06
2023-05-04T09:13:21.066Z,1016.04
2023-05-04T09:14:21.010Z,1016.01
2023-05-04T09:15:21.406Z,1016.06
2023-05-04T09:16:21.081Z,1016.11
2023-05-04T09:17:22.567Z,1016.05
2023-05-04T09:18:21.157Z,1016.06
2023-05-04T09:19:20.993Z,1015.98
2023-05-04T09:20:21.137Z,1015.94
2023-05-04T09:21:20.931Z,1015.95
2023-05-04T09:22:21.725Z,1015.93
2023-05-04T09:23:20.949Z,1015.91
2023-05-04T09:24:20.914Z,1015.96
2023-05-04T09:25:20.873Z,1015.91
2023-05-04T09:26:20.965Z,1015.86
2023-05-04T09:27:20.865Z,1015.90
2023-05-04T09:28:20.889Z,1015.90
2023-05-04T09:29:20.851Z,1015.88
2023-05-04T09:30:20.829Z,1015.84
2023-05-04T09:31:20.889Z,1015.86
2023-05-04T09:32:20.844Z,1015.87
2023-05-04T09:33:20.811Z,1015.85
2023-05-04T09:34:20.826Z,1015.81
2023-05-04T09:35:31.984Z,1015.81
2023-05-04T09:36:21.771Z,1015.81
2023-05-04T09:37:20.789Z,1015.78
2023-05-04T09:38:20.813Z,1015.78
2023-05-04T09:39:22.255Z,1015.75
2023-05-04T09:40:20.735Z,1015.78
2023-05-04T09:41:20.738Z,1015.74
2023-05-04T09:42:20.703Z,1015.71
2023-05-04T09:43:20.687Z,1015.73
2023-05-04T09:44:22.162Z,1015.72
2023-05-04T09:45:21.641Z,1015.70
2023-05-04T09:46:20.751Z,1015.70
2023-05-04T09:47:20.637Z,1015.69
2023-05-04T09:48:20.811Z,1015.68
2023-05-04T09:49:20.622Z,1015.71
2023-05-04T09:50:21.253Z,1015.67
2023-05-04T09:51:20.591Z,1015.57
2023-05-04T09:52:21.399Z,1015.60
2023-05-04T09:53:22.033Z,1015.61
2023-05-04T09:54:20.602Z,1015.61
2023-05-04T09:55:20.600Z,1015.62
2023-05-04T09:56:20.580Z,1015.67
2023-05-04T09:57:20.607Z,1015.60
2023-05-04T09:58:21.965Z,1015.56
2023-05-04T09:59:20.497Z,1015.58
2023-05-04T10:00:20.597Z,1015.52
2023-05-04T10:01:20.564Z,1015.52
2023-05-04T10:02:23.125Z,1015.54
2023-05-04T10:03:20.516Z,1015.47
2023-05-04T10:04:21.425Z,1015.46
2023-05-04T10:05:21.718Z,1015.49
2023-05-04T10:06:20.431Z,1015.45
2023-05-04T10:07:20.413Z,1015.48
2023-05-04T10:08:20.495Z,1015.48
2023-05-04T10:09:20.466Z,1015.41
2023-05-04T10:10:20.393Z,1015.39
2023-05-04T10:11:20.402Z,1015.36
2023-05-04T10:12:21.341Z,1015.35
2023-05-04T10:13:20.347Z,1015.37
2023-05-04T10:14:20.325Z,1015.39
2023-05-04T10:15:20.356Z,1015.37
2023-05-04T10:16:22.345Z,1015.37
2023-05-04T10:17:21.976Z,1015.32
2023-05-04T10:18:20.688Z,1015.29
2023-05-04T10:19:20.284Z,1015.29
2023-05-04T10:20:20.297Z,1015.24
2023-05-04T10:21:20.291Z,1015.31
2023-05-04T10:22:20.277Z,1015.26
2023-05-04T10:23:21.972Z,1015.32
2023-05-04T10:24:20.238Z,1015.27
2023-05-04T10:25:20.254Z,1015.27
2023-05-04T10:26:20.301Z,1015.31
2023-05-04T10:27:20.205Z,1015.39
2023-05-04T10:28:20.212Z,1015.32
2023-05-04T10:29:21.379Z,1015.31
2023-05-04T10:30:20.162Z,1015.25
2023-05-04T10:31:20.177Z,1015.36
2023-05-04T10:32:20.144Z,1015.22
2023-05-04T10:33:20.152Z,1015.22
2023-05-04T10:34:20.168Z,1015.22
2023-05-04T10:35:20.167Z,1015.18
2023-05-04T10:36:20.098Z,1015.23
2023-05-04T10:37:20.106Z,1015.25
2023-05-04T10:38:20.089Z,1015.21
2023-05-04T10:39:20.074Z,1015.12
2023-05-04T10:40:20.057Z,1015.07
2023-05-04T10:41:20.053Z,1015.10
2023-05-04T10:42:20.063Z,1015.05
2023-05-04T10:43:20.050Z,1015.08
2023-05-04T10:44:20.025Z,1015.02
2023-05-04T10:45:20.001Z,1015.03
2023-05-04T10:46:21.556Z,1014.98
2023-05-04T10:47:19.972Z,1014.94
2023-05-04T10:48:20.018Z,1014.98
2023-05-04T10:49:19.954Z,1015.00
2023-05-04T10:50:19.949Z,1014.97
2023-05-04T10:51:19.947Z,1014.90
2023-05-04T10:52:19.924Z,1014.84
2023-05-04T10:53:19.892Z,1014.87
2023-05-04T10:54:20.384Z,1014.79
2023-05-04T10:55:19.881Z,1014.79
2023-05-04T10:56:19.879Z,1014.72
2023-05-04T10:57:19.873Z,1014.71
2023-05-04T10:58:19.871Z,1014.71
2023-05-04T10:59:19.837Z,1014.69
2023-05-04T11:00:19.865Z,1014.68
2023-05-04T11:01:19.900Z,1014.62
2023-05-04T11:02:19.882Z,1014.64
2023-05-04T11:03:19.884Z,1014.60
2023-05-04T11:04:19.786Z,1014.59
2023-05-04T11:05:19.787Z,1014.52
2023-05-04T11:06:23.436Z,1014.56
2023-05-04T11:07:19.815Z,1014.50
2023-05-04T11:08:19.772Z,1014.52
2023-05-04T11:09:19.752Z,1014.54
2023-05-04T11:10:19.727Z,1014.56
2023-05-04T11:11:19.731Z,1014.54
2023-05-04T11:12:19.723Z,1014.50
2023-05-04T11:13:19.811Z,1014.51
2023-05-04T11:14:19.675Z,1014.49
2023-05-04T11:15:19.694Z,1014.52
2023-05-04T11:16:19.738Z,1014.43
2023-05-04T11:17:28.206Z,1014.47
2023-05-04T11:18:20.637Z,1014.42
2023-05-04T11:19:19.617Z,1014.43
2023-05-04T11:20:19.619Z,1014.38
2023-05-04T11:21:19.643Z,1014.38
2023-05-04T11:22:19.595Z,1014.43
2023-05-04T11:23:19.584Z,1014.36
2023-05-04T11:24:19.567Z,1014.39
2023-05-04T11:25:19.552Z,1014.36
2023-05-04T11:26:19.545Z,1014.45
2023-05-04T11:27:19.566Z,1014.39
2023-05-04T11:28:19.529Z,1014.38
2023-05-04T11:29:19.536Z,1014.29
2023-05-04T11:30:19.497Z,1014.31
2023-05-04T11:31:19.534Z,1014.23
2023-05-04T11:32:19.483Z,1014.22
2023-05-04T11:33:19.504Z,1014.19
2023-05-04T11:34:19.479Z,1014.18
2023-05-04T11:35:19.446Z,1014.17
2023-05-04T11:36:19.470Z,1014.14
2023-05-04T11:37:19.430Z,1014.10
2023-05-04T11:38:19.419Z,1014.12
2023-05-04T11:39:19.416Z,1014.10
2023-05-04T11:40:19.407Z,1014.12
2023-05-04T11:41:19.391Z,1014.03
2023-05-04T11:42:19.386Z,1014.04
2023-05-04T11:43:19.372Z,1014.02
2023-05-04T11:44:19.403Z,1014.02
2023-05-04T11:45:19.355Z,1014.02
2023-05-04T11:46:19.376Z,1014.01
2023-05-04T11:47:19.308Z,1013.92
2023-05-04T11:48:20.808Z,1013.87
2023-05-04T11:49:19.291Z,1013.88
2023-05-04T11:50:19.306Z,1013.81
2023-05-04T11:51:19.269Z,1013.84
2023-05-04T11:52:19.256Z,1013.83
2023-05-04T11:53:19.267Z,1013.78
2023-05-04T11:54:19.277Z,1013.81
2023-05-04T11:55:19.220Z,1013.77
2023-05-04T11:56:19.222Z,1013.77
2023-05-04T11:57:19.320Z,1013.80
2023-05-04T11:58:19.231Z,1013.77
2023-05-04T11:59:19.193Z,1013.79
2023-05-04T12:00:19.233Z,1013.78
2023-05-04T12:01:19.162Z,1013.76
2023-05-04T12:02:19.180Z,1013.76
2023-05-04T12:03:19.257Z,1013.74
2023-05-04T12:04:19.183Z,1013.72
2023-05-04T12:05:20.600Z,1013.62